createdAt,value
2022-08-23T00:03:26.536Z,46.69
2022-08-23T00:08:30.116Z,46.55
2022-08-23T00:13:47.262Z,46.89
2022-08-23T00:18:51.160Z,46.74
2022-08-23T00:23:53.925Z,46.50
2022-08-23T00:28:58.103Z,46.25
2022-08-23T00:34:01.083Z,46.04
2022-08-23T00:39:04.511Z,46.34
2022-08-23T00:44:41.627Z,47.14
2022-08-23T00:49:45.264Z,47.65
2022-08-23T00:54:47.995Z,47.73
2022-08-23T00:59:52.448Z,48.07
2022-08-23T01:04:56.206Z,48.14
2022-08-23T01:10:03.304Z,47.76
2022-08-23T01:15:11.045Z,47.94
2022-08-23T01:20:15.177Z,47.54
2022-08-23T01:25:22.306Z,47.53
2022-08-23T01:30:26.693Z,47.47
2022-08-23T01:35:33.455Z,47.54
2022-08-23T01:40:39.240Z,47.64
2022-08-23T01:45:42.959Z,47.65
2022-08-23T01:50:47.764Z,48.00
2022-08-23T01:55:52.036Z,47.82
2022-08-23T02:00:56.356Z,48.05
2022-08-23T02:05:59.788Z,47.91
2022-08-23T02:11:10.026Z,47.83
2022-08-23T02:16:14.869Z,48.21
2022-08-23T02:21:18.055Z,47.80
2022-08-23T02:26:30.734Z,48.05
2022-08-23T02:31:34.191Z,48.71
2022-08-23T02:36:37.604Z,48.98
2022-08-23T02:41:42.282Z,49.08
2022-08-23T02:46:46.870Z,49.47
2022-08-23T02:51:51.015Z,50.20
2022-08-23T02:56:55.231Z,49.89
2022-08-23T03:01:59.326Z,50.65
2022-08-23T03:07:10.106Z,50.39
2022-08-23T03:12:15.314Z,50.12
2022-08-23T03:17:23.795Z,50.12
2022-08-23T03:22:26.611Z,49.81
2022-08-23T03:27:31.561Z,49.65
2022-08-23T03:32:41.356Z,49.69
2022-08-23T03:37:55.325Z,50.23
2022-08-23T03:43:01.289Z,50.21
2022-08-23T03:48:06.018Z,50.28
2022-08-23T03:53:12.191Z,50.42
2022-08-23T03:58:18.354Z,50.46
2022-08-23T04:03:21.397Z,50.33
2022-08-23T04:08:36.355Z,51.79
2022-08-23T04:13:42.332Z,52.80
2022-08-23T04:18:45.128Z,53.29
2022-08-23T04:23:49.758Z,54.17
2022-08-23T04:28:53.983Z,54.15
2022-08-23T04:33:56.867Z,53.97
2022-08-23T04:38:59.984Z,53.57
2022-08-23T04:44:05.604Z,52.97
2022-08-23T04:49:13.184Z,52.98
2022-08-23T04:54:21.215Z,53.24
2022-08-23T04:59:55.786Z,53.24
2022-08-23T05:04:58.599Z,53.17
2022-08-23T05:10:01.814Z,52.23
2022-08-23T05:15:06.724Z,53.31
2022-08-23T05:20:11.398Z,52.90
2022-08-23T05:25:14.889Z,53.03
2022-08-23T05:30:19.289Z,54.09
2022-08-23T05:35:22.835Z,53.97
2022-08-23T05:40:26.416Z,53.14
2022-08-23T05:45:46.196Z,53.70
2022-08-23T05:50:49.100Z,54.76
2022-08-23T05:55:51.932Z,55.58
2022-08-23T06:00:57.859Z,56.00
2022-08-23T06:06:00.881Z,55.24
2022-08-23T06:11:04.661Z,55.15
2022-08-23T06:16:15.442Z,55.00
2022-08-23T06:21:19.589Z,55.39
2022-08-23T06:26:26.175Z,55.93
2022-08-23T06:31:49.151Z,56.46
2022-08-23T06:37:00.923Z,56.50
2022-08-23T06:42:44.826Z,56.84
2022-08-23T06:47:49.093Z,57.66
2022-08-23T06:52:52.893Z,58.16
2022-08-23T06:58:15.665Z,58.21
2022-08-23T07:03:38.387Z,57.67
2022-08-23T07:08:59.950Z,57.92
2022-08-23T07:14:03.951Z,58.42
2022-08-23T07:19:09.182Z,58.51
2022-08-23T07:24:13.538Z,58.11
2022-08-23T07:29:16.768Z,58.34
2022-08-23T07:34:21.238Z,59.15
2022-08-23T07:39:24.346Z,58.75
2022-08-23T07:44:28.103Z,58.81
2022-08-23T07:49:32.714Z,58.34
2022-08-23T07:54:38.220Z,58.08
2022-08-23T07:59:54.762Z,57.96
2022-08-23T08:05:22.031Z,57.84
2022-08-23T08:10:26.617Z,57.01
2022-08-23T08:15:30.096Z,56.51
2022-08-23T08:20:45.469Z,55.87
2022-08-23T08:26:07.779Z,55.99
2022-08-23T08:31:13.204Z,56.23
2022-08-23T08:36:31.350Z,55.31
2022-08-23T08:41:48.473Z,55.59
2022-08-23T08:46:57.968Z,55.04
2022-08-23T08:52:06.649Z,54.90
2022-08-23T08:57:09.988Z,55.62
2022-08-23T09:02:32.755Z,55.74
2022-08-23T09:07:45.507Z,54.89
2022-08-23T09:12:52.306Z,54.57
2022-08-23T09:17:56.427Z,55.24
2022-08-23T09:23:07.131Z,54.80
2022-08-23T09:28:19.077Z,54.96
2022-08-23T09:33:22.771Z,55.23
2022-08-23T09:38:31.646Z,55.43
2022-08-23T09:43:44.655Z,55.72
2022-08-23T09:48:47.750Z,55.93
2022-08-23T09:54:07.672Z,55.35
2022-08-23T09:59:34.977Z,55.60
2022-08-23T10:04:47.264Z,55.64
2022-08-23T10:09:52.449Z,56.18
2022-08-23T10:14:55.508Z,55.59
2022-08-23T10:20:01.486Z,54.17
2022-08-23T10:25:08.474Z,55.15
2022-08-23T10:30:13.186Z,54.97
2022-08-23T10:35:38.685Z,54.21
2022-08-23T10:40:45.280Z,53.79
2022-08-23T10:45:48.177Z,53.72
2022-08-23T10:51:04.109Z,53.61
2022-08-23T10:56:13.547Z,53.50
2022-08-23T11:01:26.460Z,53.84
2022-08-23T11:06:47.018Z,53.31
2022-08-23T11:12:07.160Z,53.13
2022-08-23T11:17:25.327Z,52.72
2022-08-23T11:22:29.995Z,52.53
2022-08-23T11:27:37.860Z,52.08
2022-08-23T11:32:43.234Z,52.50
2022-08-23T11:37:53.284Z,52.06
2022-08-23T11:42:59.258Z,52.10
2022-08-23T11:48:09.907Z,52.12
2022-08-23T11:53:19.942Z,51.54
2022-08-23T11:58:27.390Z,50.66
2022-08-23T12:03:34.059Z,50.21
2022-08-23T12:08:53.506Z,49.87
2022-08-23T12:14:01.969Z,49.58
2022-08-23T12:19:13.516Z,49.76
2022-08-23T12:24:19.635Z,49.58
2022-08-23T12:29:32.702Z,49.36
2022-08-23T12:34:40.627Z,49.28
2022-08-23T12:39:50.192Z,49.36
2022-08-23T12:45:02.220Z,49.31
2022-08-23T12:50:09.173Z,49.11
2022-08-23T12:55:14.079Z,49.10
2022-08-23T13:00:20.747Z,49.42
2022-08-23T13:05:33.522Z,49.35
2022-08-23T13:10:37.567Z,49.65
2022-08-23T13:15:44.229Z,49.47
2022-08-23T13:20:47.319Z,49.64
2022-08-23T13:25:50.056Z,49.74
2022-08-23T13:31:01.197Z,49.79
2022-08-23T13:36:13.477Z,49.92
2022-08-23T13:41:29.836Z,49.89
2022-08-23T13:46:34.192Z,50.11
2022-08-23T13:51:38.822Z,49.94
2022-08-23T13:56:45.299Z,49.67
2022-08-23T14:01:49.583Z,49.70
2022-08-23T14:06:52.317Z,49.62
2022-08-23T14:11:56.478Z,49.50
2022-08-23T14:17:02.872Z,49.52
2022-08-23T14:22:06.059Z,49.60
2022-08-23T14:27:09.353Z,49.69
2022-08-23T14:32:13.494Z,49.85
2022-08-23T14:42:39.030Z,49.71
2022-08-23T14:47:44.885Z,49.60
2022-08-23T14:52:47.663Z,49.41
2022-08-23T14:57:51.668Z,49.54
2022-08-23T15:02:55.980Z,48.84
2022-08-23T15:07:58.824Z,48.76
2022-08-23T15:13:19.126Z,48.47
2022-08-23T15:18:25.743Z,48.68
2022-08-23T15:23:30.826Z,48.20
2022-08-23T15:28:33.739Z,48.12
2022-08-23T15:33:37.905Z,47.94
2022-08-23T15:38:41.654Z,47.50
2022-08-23T15:43:44.620Z,47.55
2022-08-23T15:48:50.271Z,47.74
2022-08-23T15:53:53.233Z,47.49
2022-08-23T15:58:56.059Z,47.33
2022-08-23T16:04:02.152Z,47.39
2022-08-23T16:09:05.597Z,48.13
2022-08-23T16:14:08.398Z,48.00
2022-08-23T16:19:12.683Z,47.91
2022-08-23T16:24:16.761Z,47.94
2022-08-23T16:29:20.410Z,48.11
2022-08-23T16:34:24.775Z,48.08
2022-08-23T16:39:27.786Z,47.88
2022-08-23T16:44:30.720Z,47.61
2022-08-23T16:49:35.010Z,47.54
2022-08-23T16:54:37.770Z,47.64
2022-08-23T16:59:40.765Z,47.45
2022-08-23T17:04:46.317Z,47.75
2022-08-23T17:09:50.670Z,47.68
2022-08-23T17:14:54.885Z,47.52
2022-08-23T17:19:59.036Z,47.35
2022-08-23T17:25:01.975Z,47.46
2022-08-23T17:30:05.478Z,47.34
2022-08-23T17:35:14.708Z,47.46
2022-08-23T17:40:25.500Z,47.15
2022-08-23T17:45:28.671Z,47.28
2022-08-23T17:50:32.849Z,47.24
2022-08-23T17:55:36.123Z,47.57
2022-08-23T18:00:39.486Z,47.24
2022-08-23T18:05:43.730Z,47.34
2022-08-23T18:10:46.592Z,47.37
2022-08-23T18:15:49.390Z,47.26
2022-08-23T18:20:53.519Z,47.71
2022-08-23T18:25:56.308Z,47.92
2022-08-23T18:31:03.571Z,47.65
2022-08-23T18:36:08.465Z,47.38
2022-08-23T18:41:13.125Z,46.58
2022-08-23T18:46:16.245Z,47.09
2022-08-23T18:51:20.582Z,46.92
2022-08-23T18:56:23.809Z,47.00
2022-08-23T19:01:29.030Z,47.31
2022-08-23T19:06:33.426Z,46.86
2022-08-23T19:11:36.438Z,47.44
2022-08-23T19:16:39.785Z,47.27
2022-08-23T19:21:43.930Z,47.13
2022-08-23T19:26:49.112Z,47.34
2022-08-23T19:31:52.912Z,47.55
2022-08-23T19:37:01.286Z,47.48
2022-08-23T19:42:09.699Z,47.43
2022-08-23T19:47:19.450Z,47.53
2022-08-23T19:52:23.716Z,47.95
2022-08-23T19:57:26.902Z,47.85
2022-08-23T20:02:29.736Z,47.65
2022-08-23T20:07:33.955Z,47.66
2022-08-23T20:12:36.800Z,47.78
2022-08-23T20:17:39.689Z,48.07
2022-08-23T20:23:01.194Z,47.38
2022-08-23T20:28:08.194Z,47.75
2022-08-23T20:33:10.966Z,47.96
2022-08-23T20:38:32.123Z,48.07
2022-08-23T20:43:38.907Z,48.27
2022-08-23T20:48:41.816Z,48.06
2022-08-23T20:53:46.116Z,48.29
2022-08-23T20:58:48.920Z,48.33
2022-08-23T21:03:52.153Z,48.47
2022-08-23T21:08:57.184Z,48.47
2022-08-23T21:14:00.841Z,48.54
2022-08-23T21:19:03.714Z,48.22
2022-08-23T21:24:08.881Z,48.36
2022-08-23T21:29:11.811Z,48.38
2022-08-23T21:34:14.557Z,48.64
2022-08-23T21:39:18.675Z,48.48
2022-08-23T21:44:21.974Z,48.67
2022-08-23T21:49:24.763Z,48.48
2022-08-23T21:54:29.017Z,48.59
2022-08-23T21:59:31.985Z,48.56
2022-08-23T22:04:34.729Z,48.54
2022-08-23T22:09:39.285Z,48.49
2022-08-23T22:14:42.086Z,48.84
2022-08-23T22:19:44.943Z,48.83
2022-08-23T22:24:49.186Z,48.53
2022-08-23T22:29:53.413Z,48.75
2022-08-23T22:34:56.160Z,49.15
2022-08-23T22:40:00.464Z,49.19
2022-08-23T22:45:03.350Z,49.04
2022-08-23T22:50:07.102Z,49.16
2022-08-23T22:55:11.341Z,49.11
2022-08-23T23:00:16.131Z,49.18
2022-08-23T23:05:19.307Z,49.19
2022-08-23T23:10:23.410Z,49.07
2022-08-23T23:15:26.257Z,49.04
2022-08-23T23:20:39.018Z,49.10
2022-08-23T23:25:43.705Z,49.26
2022-08-23T23:30:47.446Z,49.14
2022-08-23T23:35:51.072Z,49.26
2022-08-23T23:40:55.205Z,49.20
2022-08-23T23:45:58.095Z,49.14
2022-08-23T23:51:01.120Z,49.03
2022-08-23T23:56:06.710Z,49.20
